sensor_id;sensor_type;location;lat;lon;timestamp;pressure;altitude;pressure_sealevel;temperature;humidity
72038;BME280;59900;50.788;12.904;2023-04-05T00:00:48;98236.16;;;0.74;68.71
72038;BME280;59900;50.788;12.904;2023-04-05T00:03:14;98236.06;;;0.75;68.43
72038;BME280;59900;50.788;12.904;2023-04-05T00:05:42;98234.53;;;0.73;69.38
72038;BME280;59900;50.788;12.904;2023-04-05T00:08:08;98222.66;;;0.70;69.30
72038;BME280;59900;50.788;12.904;2023-04-05T00:10:38;98225.34;;;0.69;69.28
72038;BME280;59900;50.788;12.904;2023-04-05T00:13:03;98222.06;;;0.78;68.73
72038;BME280;59900;50.788;12.904;2023-04-05T00:15:29;98222.19;;;0.87;68.32
72038;BME280;59900;50.788;12.904;2023-04-05T00:17:56;98229.56;;;0.92;67.88
72038;BME280;59900;50.788;12.904;2023-04-05T00:20:22;98223.31;;;0.94;68.21
72038;BME280;59900;50.788;12.904;2023-04-05T00:22:47;98219.56;;;0.98;68.25
72038;BME280;59900;50.788;12.904;2023-04-05T00:25:15;98222.63;;;1.03;67.85
72038;BME280;59900;50.788;12.904;2023-04-05T00:27:42;98218.66;;;0.99;68.25
72038;BME280;59900;50.788;12.904;2023-04-05T00:30:08;98215.34;;;0.97;68.47
72038;BME280;59900;50.788;12.904;2023-04-05T00:32:34;98210.63;;;0.91;68.59
72038;BME280;59900;50.788;12.904;2023-04-05T00:35:00;98216.50;;;0.82;68.87
72038;BME280;59900;50.788;12.904;2023-04-05T00:37:25;98211.94;;;0.75;69.15
72038;BME280;59900;50.788;12.904;2023-04-05T00:39:50;98217.25;;;0.84;68.83
72038;BME280;59900;50.788;12.904;2023-04-05T00:42:17;98210.63;;;0.91;68.30
72038;BME280;59900;50.788;12.904;2023-04-05T00:44:43;98208.28;;;0.99;67.63
72038;BME280;59900;50.788;12.904;2023-04-05T00:47:08;98204.16;;;1.08;65.69
72038;BME280;59900;50.788;12.904;2023-04-05T00:49:34;98204.75;;;1.11;64.32
72038;BME280;59900;50.788;12.904;2023-04-05T00:52:00;98207.19;;;1.13;64.13
72038;BME280;59900;50.788;12.904;2023-04-05T00:54:27;98204.38;;;1.16;64.44
72038;BME280;59900;50.788;12.904;2023-04-05T00:56:57;98202.84;;;1.13;64.51
72038;BME280;59900;50.788;12.904;2023-04-05T00:59:24;98198.38;;;1.16;65.68
72038;BME280;59900;50.788;12.904;2023-04-05T01:01:55;98208.97;;;1.12;65.46
72038;BME280;59900;50.788;12.904;2023-04-05T01:04:24;98194.94;;;1.15;65.54
72038;BME280;59900;50.788;12.904;2023-04-05T01:07:06;98195.53;;;1.19;66.40
72038;BME280;59900;50.788;12.904;2023-04-05T01:09:52;98194.16;;;1.03;67.23
72038;BME280;59900;50.788;12.904;2023-04-05T01:12:21;98191.47;;;0.94;66.83
72038;BME280;59900;50.788;12.904;2023-04-05T01:14:53;98186.56;;;0.91;66.83
72038;BME280;59900;50.788;12.904;2023-04-05T01:17:21;98186.56;;;0.91;66.89
72038;BME280;59900;50.788;12.904;2023-04-05T01:19:49;98188.53;;;0.87;67.20
72038;BME280;59900;50.788;12.904;2023-04-05T01:27:59;98182.88;;;0.82;68.24
72038;BME280;59900;50.788;12.904;2023-04-05T01:30:38;98179.50;;;0.82;68.90
72038;BME280;59900;50.788;12.904;2023-04-05T01:33:16;98180.53;;;0.90;68.95
72038;BME280;59900;50.788;12.904;2023-04-05T01:38:18;98171.09;;;1.00;67.75
72038;BME280;59900;50.788;12.904;2023-04-05T01:40:47;98167.38;;;0.93;68.40
72038;BME280;59900;50.788;12.904;2023-04-05T01:43:13;98173.13;;;0.86;68.99
72038;BME280;59900;50.788;12.904;2023-04-05T01:45:40;98171.97;;;0.79;68.79
72038;BME280;59900;50.788;12.904;2023-04-05T01:48:06;98165.16;;;0.78;68.85
72038;BME280;59900;50.788;12.904;2023-04-05T01:50:31;98164.34;;;0.66;69.58
72038;BME280;59900;50.788;12.904;2023-04-05T01:52:56;98161.28;;;0.61;69.17
72038;BME280;59900;50.788;12.904;2023-04-05T01:55:21;98167.88;;;0.54;68.88
72038;BME280;59900;50.788;12.904;2023-04-05T01:57:47;98163.16;;;0.48;69.27
72038;BME280;59900;50.788;12.904;2023-04-05T02:00:12;98160.81;;;0.45;69.15
72038;BME280;59900;50.788;12.904;2023-04-05T02:02:37;98160.59;;;0.37;69.55
72038;BME280;59900;50.788;12.904;2023-04-05T02:05:03;98164.09;;;0.36;69.06
72038;BME280;59900;50.788;12.904;2023-04-05T02:07:28;98164.00;;;0.37;68.67
72038;BME280;59900;50.788;12.904;2023-04-05T02:09:53;98167.19;;;0.41;68.32
72038;BME280;59900;50.788;12.904;2023-04-05T02:12:18;98153.66;;;0.48;68.39
72038;BME280;59900;50.788;12.904;2023-04-05T02:14:44;98153.19;;;0.54;68.91
72038;BME280;59900;50.788;12.904;2023-04-05T02:17:09;98148.59;;;0.58;69.00
72038;BME280;59900;50.788;12.904;2023-04-05T02:19:34;98148.69;;;0.56;69.10
72038;BME280;59900;50.788;12.904;2023-04-05T02:22:05;98145.66;;;0.63;69.25
72038;BME280;59900;50.788;12.904;2023-04-05T02:24:31;98154.47;;;0.49;69.62
72038;BME280;59900;50.788;12.904;2023-04-05T02:26:56;98152.13;;;0.46;69.91
72038;BME280;59900;50.788;12.904;2023-04-05T02:29:22;98151.91;;;0.49;68.19
72038;BME280;59900;50.788;12.904;2023-04-05T02:31:47;98144.13;;;0.49;67.70
72038;BME280;59900;50.788;12.904;2023-04-05T02:34:12;98149.91;;;0.52;66.81
72038;BME280;59900;50.788;12.904;2023-04-05T02:36:38;98140.59;;;0.61;66.60
72038;BME280;59900;50.788;12.904;2023-04-05T02:39:03;98140.47;;;0.63;65.98
72038;BME280;59900;50.788;12.904;2023-04-05T02:41:28;98142.22;;;0.62;65.85
72038;BME280;59900;50.788;12.904;2023-04-05T02:43:54;98142.47;;;0.59;66.16
72038;BME280;59900;50.788;12.904;2023-04-05T02:46:19;98137.66;;;0.54;66.32
72038;BME280;59900;50.788;12.904;2023-04-05T02:48:45;98141.09;;;0.55;66.70
72038;BME280;59900;50.788;12.904;2023-04-05T02:51:10;98139.88;;;0.59;66.31
72038;BME280;59900;50.788;12.904;2023-04-05T02:53:36;98139.06;;;0.70;66.59
72038;BME280;59900;50.788;12.904;2023-04-05T02:56:01;98136.94;;;0.75;67.27
72038;BME280;59900;50.788;12.904;2023-04-05T02:58:26;98138.25;;;0.69;67.69
72038;BME280;59900;50.788;12.904;2023-04-05T03:00:52;98131.53;;;0.67;67.54
72038;BME280;59900;50.788;12.904;2023-04-05T03:03:22;98138.47;;;0.66;68.20
72038;BME280;59900;50.788;12.904;2023-04-05T03:05:48;98129.88;;;0.66;68.14
72038;BME280;59900;50.788;12.904;2023-04-05T03:08:14;98135.19;;;0.64;67.93
72038;BME280;59900;50.788;12.904;2023-04-05T03:10:46;98125.75;;;0.74;67.08
72038;BME280;59900;50.788;12.904;2023-04-05T03:13:13;98125.75;;;0.74;66.82
72038;BME280;59900;50.788;12.904;2023-04-05T03:15:38;98132.44;;;0.77;66.88
72038;BME280;59900;50.788;12.904;2023-04-05T03:18:04;98131.75;;;0.75;67.08
72038;BME280;59900;50.788;12.904;2023-04-05T03:20:29;98131.16;;;0.82;67.33
72038;BME280;59900;50.788;12.904;2023-04-05T03:22:54;98125.28;;;0.80;66.95
72038;BME280;59900;50.788;12.904;2023-04-05T03:25:20;98130.34;;;0.82;67.17
72038;BME280;59900;50.788;12.904;2023-04-05T03:27:45;98132.22;;;0.80;67.58
72038;BME280;59900;50.788;12.904;2023-04-05T03:30:11;98131.41;;;0.79;67.35
72038;BME280;59900;50.788;12.904;2023-04-05T03:32:36;98124.34;;;0.81;67.34
72038;BME280;59900;50.788;12.904;2023-04-05T03:35:01;98123.16;;;0.85;67.40
72038;BME280;59900;50.788;12.904;2023-04-05T03:37:26;98126.56;;;0.86;66.90
72038;BME280;59900;50.788;12.904;2023-04-05T03:39:52;98118.81;;;0.75;67.54
72038;BME280;59900;50.788;12.904;2023-04-05T03:42:17;98125.41;;;0.68;67.74
72038;BME280;59900;50.788;12.904;2023-04-05T03:44:42;98128.13;;;0.66;67.90
72038;BME280;59900;50.788;12.904;2023-04-05T03:47:08;98127.69;;;0.61;68.31
72038;BME280;59900;50.788;12.904;2023-04-05T03:49:33;98134.22;;;0.65;68.34
72038;BME280;59900;50.788;12.904;2023-04-05T03:51:58;98128.81;;;0.68;68.26
72038;BME280;59900;50.788;12.904;2023-04-05T03:54:23;98122.09;;;0.77;68.26
72038;BME280;59900;50.788;12.904;2023-04-05T03:56:49;98126.94;;;0.81;68.01
72038;BME280;59900;50.788;12.904;2023-04-05T03:59:14;98129.16;;;0.86;67.01
72038;BME280;59900;50.788;12.904;2023-04-05T04:01:40;98133.16;;;0.90;66.50
72038;BME280;59900;50.788;12.904;2023-04-05T04:04:05;98126.44;;;0.87;66.34
72038;BME280;59900;50.788;12.904;2023-04-05T04:06:30;98120.78;;;0.82;66.35
72038;BME280;59900;50.788;12.904;2023-04-05T04:08:55;98121.66;;;0.72;66.49
72038;BME280;59900;50.788;12.904;2023-04-05T04:11:21;98123.41;;;0.71;67.09
72038;BME280;59900;50.788;12.904;2023-04-05T04:13:46;98124.47;;;0.69;68.20
72038;BME280;59900;50.788;12.904;2023-04-05T04:16:11;98130.47;;;0.69;68.43
72038;BME280;59900;50.788;12.904;2023-04-05T04:18:37;98118.97;;;0.73;67.87
72038;BME280;59900;50.788;12.904;2023-04-05T04:21:02;98121.75;;;0.81;67.84
72038;BME280;59900;50.788;12.904;2023-04-05T04:23:31;98128.31;;;0.85;67.87
72038;BME280;59900;50.788;12.904;2023-04-05T04:25:57;98118.47;;;0.79;68.34
72038;BME280;59900;50.788;12.904;2023-04-05T04:28:22;98125.19;;;0.82;68.44
72038;BME280;59900;50.788;12.904;2023-04-05T04:30:49;98124.34;;;0.81;68.53
72038;BME280;59900;50.788;12.904;2023-04-05T04:33:14;98119.88;;;0.83;68.67
72038;BME280;59900;50.788;12.904;2023-04-05T04:35:41;98125.63;;;0.87;68.07
72038;BME280;59900;50.788;12.904;2023-04-05T04:38:10;98122.59;;;0.82;67.78
72038;BME280;59900;50.788;12.904;2023-04-05T04:40:44;98121.06;;;0.79;67.87
72038;BME280;59900;50.788;12.904;2023-04-05T04:43:15;98125.88;;;0.84;67.81
72038;BME280;59900;50.788;12.904;2023-04-05T04:45:44;98124.94;;;0.85;66.86
72038;BME280;59900;50.788;12.904;2023-04-05T04:48:14;98135.59;;;0.91;66.49
72038;BME280;59900;50.788;12.904;2023-04-05T04:50:41;98127.72;;;0.93;67.33
72038;BME280;59900;50.788;12.904;2023-04-05T04:53:07;98127.72;;;0.93;66.76
72038;BME280;59900;50.788;12.904;2023-04-05T04:55:32;98122.31;;;0.96;66.46
72038;BME280;59900;50.788;12.904;2023-04-05T04:58:00;98133.25;;;0.99;65.36
72038;BME280;59900;50.788;12.904;2023-04-05T05:00:25;98136.06;;;0.96;66.09
72038;BME280;59900;50.788;12.904;2023-04-05T05:02:51;98138.44;;;0.99;66.58
72038;BME280;59900;50.788;12.904;2023-04-05T05:05:17;98138.28;;;1.01;66.85
72038;BME280;59900;50.788;12.904;2023-04-05T05:07:46;98132.63;;;1.07;67.29
72038;BME280;59900;50.788;12.904;2023-04-05T05:10:12;98136.63;;;1.11;66.77
72038;BME280;59900;50.788;12.904;2023-04-05T05:12:40;98141.41;;;1.16;66.88
72038;BME280;59900;50.788;12.904;2023-04-05T05:15:05;98138.59;;;1.19;66.77
72038;BME280;59900;50.788;12.904;2023-04-05T05:17:31;98132.34;;;1.21;66.96
72038;BME280;59900;50.788;12.904;2023-04-05T05:19:56;98138.25;;;1.23;66.78
72038;BME280;59900;50.788;12.904;2023-04-05T05:22:24;98137.28;;;1.24;65.86
72038;BME280;59900;50.788;12.904;2023-04-05T05:24:49;98133.66;;;1.16;65.44
72038;BME280;59900;50.788;12.904;2023-04-05T05:27:15;98139.28;;;1.21;65.39
72038;BME280;59900;50.788;12.904;2023-04-05T05:29:40;98142.84;;;1.20;65.75
72038;BME280;59900;50.788;12.904;2023-04-05T05:32:05;98137.66;;;1.20;65.32
72038;BME280;59900;50.788;12.904;2023-04-05T05:34:31;98137.41;;;1.23;65.15
72038;BME280;59900;50.788;12.904;2023-04-05T05:36:57;98139.50;;;1.29;65.09
72038;BME280;59900;50.788;12.904;2023-04-05T05:39:22;98131.50;;;1.32;65.25
72038;BME280;59900;50.788;12.904;2023-04-05T05:41:48;98134.38;;;1.38;64.83
72038;BME280;59900;50.788;12.904;2023-04-05T05:44:13;98133.94;;;1.33;64.62
72038;BME280;59900;50.788;12.904;2023-04-05T05:46:38;98126.19;;;1.33;64.25
72038;BME280;59900;50.788;12.904;2023-04-05T05:49:04;98136.44;;;1.35;64.52
72038;BME280;59900;50.788;12.904;2023-04-05T05:51:29;98142.03;;;1.40;64.00
72038;BME280;59900;50.788;12.904;2023-04-05T05:53:56;98132.28;;;1.43;63.91
72038;BME280;59900;50.788;12.904;2023-04-05T05:56:21;98134.47;;;1.48;65.89
72038;BME280;59900;50.788;12.904;2023-04-05T05:58:47;98143.56;;;1.42;67.24
72038;BME280;59900;50.788;12.904;2023-04-05T06:01:12;98135.22;;;1.39;67.09
72038;BME280;59900;50.788;12.904;2023-04-05T06:03:38;98134.53;;;1.37;67.50
72038;BME280;59900;50.788;12.904;2023-04-05T06:06:03;98132.88;;;1.36;68.14
72038;BME280;59900;50.788;12.904;2023-04-05T06:08:32;98125.69;;;1.39;67.94
72038;BME280;59900;50.788;12.904;2023-04-05T06:10:58;98130.03;;;1.39;68.14
72038;BME280;59900;50.788;12.904;2023-04-05T06:13:23;98137.44;;;1.43;68.59
72038;BME280;59900;50.788;12.904;2023-04-05T06:15:49;98137.56;;;1.42;68.52
72038;BME280;59900;50.788;12.904;2023-04-05T06:18:14;98146.72;;;1.46;68.32
72038;BME280;59900;50.788;12.904;2023-04-05T06:20:41;98138.47;;;1.52;68.68
72038;BME280;59900;50.788;12.904;2023-04-05T06:23:09;98136.56;;;1.54;68.88
72038;BME280;59900;50.788;12.904;2023-04-05T06:25:34;98140.22;;;1.51;68.24
72038;BME280;59900;50.788;12.904;2023-04-05T06:28:02;98138.91;;;1.57;68.13
72038;BME280;59900;50.788;12.904;2023-04-05T06:30:28;98133.81;;;1.66;67.61
72038;BME280;59900;50.788;12.904;2023-04-05T06:32:53;98140.00;;;1.75;67.75
72038;BME280;59900;50.788;12.904;2023-04-05T06:35:19;98133.59;;;1.79;66.26
72038;BME280;59900;50.788;12.904;2023-04-05T06:37:45;98138.66;;;1.81;66.43
72038;BME280;59900;50.788;12.904;2023-04-05T06:40:10;98136.91;;;1.81;66.75
72038;BME280;59900;50.788;12.904;2023-04-05T06:42:36;98139.50;;;1.81;65.67
72038;BME280;59900;50.788;12.904;2023-04-05T06:45:01;98137.72;;;1.82;66.40
72038;BME280;59900;50.788;12.904;2023-04-05T06:47:28;98137.22;;;1.88;64.88
72038;BME280;59900;50.788;12.904;2023-04-05T06:49:53;98132.06;;;1.97;64.71
72038;BME280;59900;50.788;12.904;2023-04-05T06:52:18;98130.44;;;1.96;64.00
72038;BME280;59900;50.788;12.904;2023-04-05T06:54:44;98143.59;;;2.04;63.38
72038;BME280;59900;50.788;12.904;2023-04-05T06:57:09;98134.63;;;2.08;62.45
72038;BME280;59900;50.788;12.904;2023-04-05T06:59:34;98141.75;;;2.16;63.04
72038;BME280;59900;50.788;12.904;2023-04-05T07:01:59;98145.72;;;2.20;62.04
72038;BME280;59900;50.788;12.904;2023-04-05T07:04:25;98142.41;;;2.18;61.82
72038;BME280;59900;50.788;12.904;2023-04-05T07:06:51;98134.91;;;2.15;62.20
72038;BME280;59900;50.788;12.904;2023-04-05T07:09:17;98133.31;;;2.23;61.78
72038;BME280;59900;50.788;12.904;2023-04-05T07:11:44;98136.88;;;2.22;62.01
72038;BME280;59900;50.788;12.904;2023-04-05T07:14:09;98135.78;;;2.25;62.37
72038;BME280;59900;50.788;12.904;2023-04-05T07:16:35;98135.22;;;2.21;62.36
72038;BME280;59900;50.788;12.904;2023-04-05T07:19:00;98132.94;;;2.28;62.51
72038;BME280;59900;50.788;12.904;2023-04-05T07:21:25;98128.47;;;2.40;62.32
72038;BME280;59900;50.788;12.904;2023-04-05T07:23:51;98127.25;;;2.44;62.44
72038;BME280;59900;50.788;12.904;2023-04-05T07:26:17;98125.22;;;2.47;62.18
72038;BME280;59900;50.788;12.904;2023-04-05T07:28:42;98128.78;;;2.56;61.62
72038;BME280;59900;50.788;12.904;2023-04-05T07:31:08;98125.25;;;2.57;61.32
72038;BME280;59900;50.788;12.904;2023-04-05T07:33:33;98128.78;;;2.56;62.14
72038;BME280;59900;50.788;12.904;2023-04-05T07:35:58;98125.16;;;2.58;61.41
72038;BME280;59900;50.788;12.904;2023-04-05T07:38:25;98121.69;;;2.48;61.07
72038;BME280;59900;50.788;12.904;2023-04-05T07:40:50;98122.19;;;2.42;60.69
72038;BME280;59900;50.788;12.904;2023-04-05T07:43:17;98117.69;;;2.44;60.75
72038;BME280;59900;50.788;12.904;2023-04-05T07:45:42;98130.13;;;2.41;59.95
72038;BME280;59900;50.788;12.904;2023-04-05T07:48:07;98121.94;;;2.45;60.25
72038;BME280;59900;50.788;12.904;2023-04-05T07:50:33;98126.19;;;2.46;59.14
72038;BME280;59900;50.788;12.904;2023-04-05T07:52:59;98123.16;;;2.41;57.52
72038;BME280;59900;50.788;12.904;2023-04-05T07:55:24;98133.25;;;2.35;57.30
72038;BME280;59900;50.788;12.904;2023-04-05T07:57:51;98120.00;;;2.38;57.44
72038;BME280;59900;50.788;12.904;2023-04-05T08:00:18;98129.16;;;2.42;58.61
72038;BME280;59900;50.788;12.904;2023-04-05T08:02:43;98128.53;;;2.49;58.86
72038;BME280;59900;50.788;12.904;2023-04-05T08:05:08;98119.91;;;2.49;58.29
72038;BME280;59900;50.788;12.904;2023-04-05T08:07:33;98120.47;;;2.52;58.68
72038;BME280;59900;50.788;12.904;2023-04-05T08:09:59;98116.75;;;2.45;58.72
72038;BME280;59900;50.788;12.904;2023-04-05T08:12:25;98122.09;;;2.53;58.56
72038;BME280;59900;50.788;12.904;2023-04-05T08:14:54;98126.63;;;2.51;57.75
72038;BME280;59900;50.788;12.904;2023-04-05T08:17:19;98128.25;;;2.52;57.64
72038;BME280;59900;50.788;12.904;2023-04-05T08:19:44;98120.19;;;2.46;58.21
72038;BME280;59900;50.788;12.904;2023-04-05T08:22:09;98117.00;;;2.42;58.38
72038;BME280;59900;50.788;12.904;2023-04-05T08:24:35;98117.44;;;2.47;57.79
72038;BME280;59900;50.788;12.904;2023-04-05T08:27:00;98106.13;;;2.48;57.45
72038;BME280;59900;50.788;12.904;2023-04-05T08:29:26;98115.66;;;2.48;57.19
72038;BME280;59900;50.788;12.904;2023-04-05T08:31:51;98108.50;;;2.61;58.06
72038;BME280;59900;50.788;12.904;2023-04-05T08:34:16;98110.09;;;2.62;57.19
72038;BME280;59900;50.788;12.904;2023-04-05T08:36:41;98106.97;;;2.58;56.71
72038;BME280;59900;50.788;12.904;2023-04-05T08:39:07;98113.16;;;2.67;57.79
72038;BME280;59900;50.788;12.904;2023-04-05T08:41:40;98106.59;;;2.82;57.70
72038;BME280;59900;50.788;12.904;2023-04-05T08:44:08;98110.59;;;2.86;53.93
72038;BME280;59900;50.788;12.904;2023-04-05T08:46:34;98107.47;;;2.92;54.15
72038;BME280;59900;50.788;12.904;2023-04-05T08:49:07;98102.13;;;3.03;54.45
72038;BME280;59900;50.788;12.904;2023-04-05T08:51:33;98105.03;;;3.10;52.90
72038;BME280;59900;50.788;12.904;2023-04-05T08:54:00;98100.25;;;3.15;53.16
72038;BME280;59900;50.788;12.904;2023-04-05T08:56:30;98101.63;;;3.28;52.78
72038;BME280;59900;50.788;12.904;2023-04-05T08:59:02;98102.69;;;3.35;50.74
72038;BME280;59900;50.788;12.904;2023-04-05T09:01:30;98105.84;;;3.39;49.81
72038;BME280;59900;50.788;12.904;2023-04-05T09:04:01;98109.53;;;3.56;50.22
72038;BME280;59900;50.788;12.904;2023-04-05T09:06:29;98107.34;;;3.61;49.82
72038;BME280;59900;50.788;12.904;2023-04-05T09:08:56;98104.16;;;3.76;50.47
72038;BME280;59900;50.788;12.904;2023-04-05T09:11:22;98095.81;;;3.92;50.96
72038;BME280;59900;50.788;12.904;2023-04-05T09:13:48;98096.63;;;4.02;50.19
72038;BME280;59900;50.788;12.904;2023-04-05T09:16:15;98096.28;;;4.15;50.70
72038;BME280;59900;50.788;12.904;2023-04-05T09:18:40;98101.59;;;4.23;50.10
72038;BME280;59900;50.788;12.904;2023-04-05T09:21:06;98104.25;;;4.13;49.79
72038;BME280;59900;50.788;12.904;2023-04-05T09:23:34;98110.69;;;4.00;50.15
72038;BME280;59900;50.788;12.904;2023-04-05T09:26:00;98114.56;;;3.95;50.00
72038;BME280;59900;50.788;12.904;2023-04-05T09:28:40;98113.88;;;3.84;49.04
72038;BME280;59900;50.788;12.904;2023-04-05T09:31:09;98111.31;;;3.74;49.36
72038;BME280;59900;50.788;12.904;2023-04-05T09:33:34;98111.84;;;3.78;49.70
72038;BME280;59900;50.788;12.904;2023-04-05T09:36:01;98108.81;;;3.92;49.23
72038;BME280;59900;50.788;12.904;2023-04-05T09:38:44;98117.53;;;4.01;47.56
72038;BME280;59900;50.788;12.904;2023-04-05T09:41:10;98107.41;;;3.97;47.35
72038;BME280;59900;50.788;12.904;2023-04-05T09:43:40;98107.56;;;3.96;47.70
72038;BME280;59900;50.788;12.904;2023-04-05T09:46:06;98103.44;;;4.03;48.09
72038;BME280;59900;50.788;12.904;2023-04-05T09:48:49;98106.84;;;4.04;47.88
72038;BME280;59900;50.788;12.904;2023-04-05T09:51:16;98106.47;;;3.99;47.94
72038;BME280;59900;50.788;12.904;2023-04-05T09:53:59;98107.41;;;3.97;48.09
72038;BME280;59900;50.788;12.904;2023-04-05T09:56:27;98099.31;;;4.10;48.07
72038;BME280;59900;50.788;12.904;2023-04-05T09:58:52;98097.50;;;4.20;48.11
72038;BME280;59900;50.788;12.904;2023-04-05T10:01:21;98097.19;;;4.23;47.17
72038;BME280;59900;50.788;12.904;2023-04-05T10:03:47;98094.28;;;4.36;47.41
72038;BME280;59900;50.788;12.904;2023-04-05T10:06:14;98100.84;;;4.40;47.36
72038;BME280;59900;50.788;12.904;2023-04-05T10:08:39;98091.22;;;4.50;47.02
72038;BME280;59900;50.788;12.904;2023-04-05T10:11:05;98095.50;;;4.69;47.49
72038;BME280;59900;50.788;12.904;2023-04-05T10:13:30;98092.69;;;4.80;46.04
72038;BME280;59900;50.788;12.904;2023-04-05T10:15:59;98089.22;;;4.89;46.31
72038;BME280;59900;50.788;12.904;2023-04-05T10:18:29;98093.59;;;4.88;45.65
72038;BME280;59900;50.788;12.904;2023-04-05T10:20:57;98088.72;;;4.76;45.17
72038;BME280;59900;50.788;12.904;2023-04-05T10:23:27;98088.97;;;4.82;45.52
72038;BME280;59900;50.788;12.904;2023-04-05T10:26:15;98089.81;;;4.83;45.97
72038;BME280;59900;50.788;12.904;2023-04-05T10:28:46;98078.59;;;5.00;45.88
72038;BME280;59900;50.788;12.904;2023-04-05T10:31:25;98078.47;;;5.19;45.30
72038;BME280;59900;50.788;12.904;2023-04-05T10:34:01;98079.78;;;5.41;45.20
72038;BME280;59900;50.788;12.904;2023-04-05T10:36:52;98077.25;;;5.49;44.13
72038;BME280;59900;50.788;12.904;2023-04-05T10:39:27;98075.56;;;5.40;43.27
72038;BME280;59900;50.788;12.904;2023-04-05T10:41:58;98072.72;;;5.33;43.88
72038;BME280;59900;50.788;12.904;2023-04-05T10:44:24;98070.78;;;5.18;44.14
72038;BME280;59900;50.788;12.904;2023-04-05T10:46:52;98065.03;;;5.14;45.44
72038;BME280;59900;50.788;12.904;2023-04-05T10:49:35;98066.97;;;5.12;44.68
72038;BME280;59900;50.788;12.904;2023-04-05T10:52:02;98067.34;;;5.17;44.07
72038;BME280;59900;50.788;12.904;2023-04-05T10:54:28;98068.94;;;5.28;44.45
72038;BME280;59900;50.788;12.904;2023-04-05T10:56:56;98066.69;;;5.33;44.51
72038;BME280;59900;50.788;12.904;2023-04-05T10:59:22;98062.66;;;5.38;44.77
72038;BME280;59900;50.788;12.904;2023-04-05T11:01:49;98061.69;;;5.39;45.32
72038;BME280;59900;50.788;12.904;2023-04-05T11:04:15;98055.31;;;5.34;45.38
72038;BME280;59900;50.788;12.904;2023-04-05T11:06:41;98061.84;;;5.38;44.84
72038;BME280;59900;50.788;12.904;2023-04-05T11:09:18;98062.09;;;5.52;44.95
72038;BME280;59900;50.788;12.904;2023-04-05T11:11:46;98063.00;;;5.61;43.63
72038;BME280;59900;50.788;12.904;2023-04-05T11:14:22;98064.41;;;5.55;43.52
72038;BME280;59900;50.788;12.904;2023-04-05T11:16:51;98070.09;;;5.51;42.74
72038;BME280;59900;50.788;12.904;2023-04-05T11:19:47;98061.75;;;5.47;43.41
72038;BME280;59900;50.788;12.904;2023-04-05T11:22:24;98059.03;;;5.31;43.18
72038;BME280;59900;50.788;12.904;2023-04-05T11:24:51;98056.09;;;5.34;44.20
72038;BME280;59900;50.788;12.904;2023-04-05T11:27:24;98054.91;;;5.46;44.34
72038;BME280;59900;50.788;12.904;2023-04-05T11:29:50;98050.63;;;5.63;44.47
72038;BME280;59900;50.788;12.904;2023-04-05T11:32:18;98054.88;;;5.64;43.60
72038;BME280;59900;50.788;12.904;2023-04-05T11:34:44;98054.94;;;5.72;43.95
72038;BME280;59900;50.788;12.904;2023-04-05T11:37:10;98043.75;;;5.80;44.00
72038;BME280;59900;50.788;12.904;2023-04-05T11:39:35;98045.53;;;5.79;43.94
72038;BME280;59900;50.788;12.904;2023-04-05T11:42:04;98051.72;;;5.78;44.69
72038;BME280;59900;50.788;12.904;2023-04-05T11:44:41;98044.03;;;5.77;44.77
72038;BME280;59900;50.788;12.904;2023-04-05T11:47:07;98040.78;;;5.75;45.13
72038;BME280;59900;50.788;12.904;2023-04-05T11:49:33;98047.59;;;5.76;45.03
72038;BME280;59900;50.788;12.904;2023-04-05T11:52:09;98045.88;;;5.58;44.87
72038;BME280;59900;50.788;12.904;2023-04-05T11:54:35;98045.16;;;5.48;45.56
72038;BME280;59900;50.788;12.904;2023-04-05T11:57:00;98043.84;;;5.27;45.98
72038;BME280;59900;50.788;12.904;2023-04-05T11:59:33;98037.91;;;5.17;45.69
72038;BME280;59900;50.788;12.904;2023-04-05T12:02:04;98036.47;;;5.40;45.70
72038;BME280;59900;50.788;12.904;2023-04-05T12:04:37;98038.94;;;5.49;44.97
72038;BME280;59900;50.788;12.904;2023-04-05T12:07:16;98033.03;;;5.65;45.25
72038;BME280;59900;50.788;12.904;2023-04-05T12:10:11;98032.09;;;5.92;44.23
72038;BME280;59900;50.788;12.904;2023-04-05T12:12:40;98025.34;;;6.07;43.78
72038;BME280;59900;50.788;12.904;2023-04-05T12:15:08;98022.03;;;6.31;43.11
72038;BME280;59900;50.788;12.904;2023-04-05T12:17:44;98029.22;;;6.37;42.89
72038;BME280;59900;50.788;12.904;2023-04-05T12:20:12;98028.28;;;6.46;42.69
72038;BME280;59900;50.788;12.904;2023-04-05T12:22:39;98030.34;;;6.34;42.63
72038;BME280;59900;50.788;12.904;2023-04-05T12:25:05;98011.81;;;6.45;43.59
72038;BME280;59900;50.788;12.904;2023-04-05T12:27:32;98016.44;;;6.67;42.78
72038;BME280;59900;50.788;12.904;2023-04-05T12:30:23;98015.78;;;6.82;42.46
72038;BME280;59900;50.788;12.904;2023-04-05T12:32:53;98009.28;;;6.94;42.73
72038;BME280;59900;50.788;12.904;2023-04-05T12:35:20;98015.03;;;7.05;42.52
72038;BME280;59900;50.788;12.904;2023-04-05T12:37:48;98012.72;;;6.86;42.33
72038;BME280;59900;50.788;12.904;2023-04-05T12:40:19;98016.72;;;6.56;42.50
72038;BME280;59900;50.788;12.904;2023-04-05T12:42:44;98007.56;;;6.44;42.28
72038;BME280;59900;50.788;12.904;2023-04-05T12:45:10;98003.56;;;6.24;42.55
72038;BME280;59900;50.788;12.904;2023-04-05T12:47:50;98006.31;;;6.22;42.90
72038;BME280;59900;50.788;12.904;2023-04-05T12:50:16;98009.97;;;6.38;43.13
72038;BME280;59900;50.788;12.904;2023-04-05T12:52:52;98007.88;;;6.49;42.67
72038;BME280;59900;50.788;12.904;2023-04-05T12:55:18;98002.00;;;6.39;41.99
72038;BME280;59900;50.788;12.904;2023-04-05T12:57:48;98006.81;;;6.26;42.47
72038;BME280;59900;50.788;12.904;2023-04-05T13:00:13;98005.09;;;6.01;42.53
72038;BME280;59900;50.788;12.904;2023-04-05T13:02:39;97998.50;;;5.89;43.67
72038;BME280;59900;50.788;12.904;2023-04-05T13:05:04;97997.03;;;5.86;43.73
72038;BME280;59900;50.788;12.904;2023-04-05T13:07:29;97998.03;;;5.93;43.90
72038;BME280;59900;50.788;12.904;2023-04-05T13:09:55;97992.38;;;6.06;44.05